Leisure City, Florida
Current Conditions -  °F | °C
As of 7:53 AM on Wednesday 26 Nov 2014 (Local Time) from KHST Reporting Station
Scattered Clouds Scattered Clouds  
Wind Chill: 79°   Ceiling: Unl
Heat Index: 83°   Visibility: 10mi
Dew Point: 77°   Wind: 9mph
Humidity: 94%   Direction: 190°S
Pressure: 30.01"   Gusts: NA
Location:  25.5°N, 80.43°W
Report Text: KHST 261253Z AUTO 19008KT 10SM SCT012 26/25 A3001 RMK AO2 $
Loading
Personal Weather Stations






























Interactive Weather Map New forecast layout! Learn more

10-Day Weather Forecast

Advertisements
Track Severe Weather on mobile